Jamestown Regional Airport
KJMS : now visible

Airfield :











YOU CAN JOIN US ON...

 
LOGIN :

Register | Disclaimer

   EN    FR    IT 

 









Legend :    VFR   Marginal VFR   IFR   Intensive IFR   Very Intensive IFR
Visi :
Ceiling :
>= 8 km
>= 3000ft
5 to 8 km
1000 to 3000 ft
1500m to 5 km
500 to 1000 ft
800 to 1500m
200 to 500 ft
< 800m
< 200 ft
Symbols :   Thunderstorms  Fog  Heavy snow  Heavy precipitations  Wind > 20 kt






- Airport Elevation : 1500 ft
- IATA code : JMS


KJMS - Jamestown Regional

CURRENT METAR :
  • 281604Z AUTO 12012KT 2SM -SN OVC020 M11/M14 A3026 RMK AO2 P0000 T11061139

EXPIRED METARs :
  • 281556Z AUTO 13013KT 1 3/4SM -SN OVC018 M11/M14 A3026 RMK AO2 SLP286 P0000 T11061139
  • 281526Z AUTO 12011KT 1 3/4SM -SN OVC016 M11/M14 A3028 RMK AO2 P0000 T11111139
  • 281503Z AUTO 11011KT 2 1/2SM -SN OVC015 M11/M14 A3029 RMK AO2 P0000 T11111139
  • 281456Z AUTO 11012KT 3SM -SN OVC014 M11/M14 A3029 RMK AO2 SNB06 SLP296 P0000 60000 T11111139 55000
  • 281356Z AUTO 13010KT 10SM OVC013 M11/M14 A3028 RMK AO2 SLP293 T11111139

TAF KJMS
Valid from the 28 at 15:00 until the 29 at 12:00 UTC


281505Z 2815/2912 12011KT P6SM OVC015
TEMPO 2815/2818 3SM -SN OVC014
FM282000 13010KT P6SM BKN016
FM290100 11009KT P6SM BKN009
FM291000 12011G19KT P6SM OVC010
KZMP FIR / North America



MET'MAP, your aeronautical weather chart ! - Copyright ORBIFLY December 2007 - Disclaimer

ORBIFLY MET'MAP TEAM :

Programming & Development : Alexandra Zaïnal
Concept & original design : Baudouin d'Aumeries
Assistance for programming : Marc-Olivier Méhu
Technical & hardware support : Manuel Goepfert

Contact : metmap@orbifly.com




SOURCES & CREDITS :

   NOAA       Earth
Advisory